createdAt,value
2023-02-03T00:01:46.397Z,8.98
2023-02-03T00:04:17.008Z,13.00
2023-02-03T00:06:47.880Z,10.55
2023-02-03T00:09:18.726Z,6.93
2023-02-03T00:11:50.891Z,7.10
2023-02-03T00:14:21.316Z,7.30
2023-02-03T00:16:51.968Z,7.82
2023-02-03T00:19:22.527Z,10.70
2023-02-03T00:21:53.057Z,7.72
2023-02-03T00:24:24.758Z,7.38
2023-02-03T00:26:56.871Z,5.93
2023-02-03T00:29:27.461Z,9.20
2023-02-03T00:32:01.312Z,6.97
2023-02-03T00:34:32.532Z,5.38
2023-02-03T00:37:02.968Z,8.15
2023-02-03T00:39:33.545Z,11.95
2023-02-03T00:42:07.376Z,9.85
2023-02-03T00:44:37.856Z,6.25
2023-02-03T00:47:08.424Z,6.07
2023-02-03T00:49:38.903Z,6.15
2023-02-03T00:52:11.733Z,6.75
2023-02-03T00:54:42.390Z,8.77
2023-02-03T00:57:14.609Z,6.90
2023-02-03T00:59:44.966Z,5.88
2023-02-03T01:02:15.433Z,6.20
2023-02-03T01:04:45.932Z,5.95
2023-02-03T01:07:16.427Z,5.50
2023-02-03T01:09:46.970Z,7.45
2023-02-03T01:12:19.081Z,7.05
2023-02-03T01:14:49.663Z,5.90
2023-02-03T01:17:20.577Z,6.78
2023-02-03T01:19:51.161Z,6.00
2023-02-03T01:22:24.347Z,6.88
2023-02-03T01:24:54.752Z,6.47
2023-02-03T01:27:26.778Z,6.85
2023-02-03T01:29:57.228Z,6.50
2023-02-03T01:32:27.848Z,5.25
2023-02-03T01:34:58.370Z,5.20
2023-02-03T01:37:28.895Z,5.38
2023-02-03T01:39:59.372Z,4.90
2023-02-03T01:42:34.847Z,4.05
2023-02-03T01:45:05.912Z,3.88
2023-02-03T01:47:39.489Z,4.45
2023-02-03T01:50:17.557Z,3.50
2023-02-03T01:52:56.312Z,4.22
2023-02-03T01:55:31.018Z,4.20
2023-02-03T01:58:06.506Z,3.60
2023-02-03T02:00:37.323Z,3.65
2023-02-03T02:03:10.016Z,4.00
2023-02-03T02:05:45.196Z,3.30
2023-02-03T02:08:17.078Z,3.90
2023-02-03T02:10:48.451Z,3.88
2023-02-03T02:13:22.027Z,3.28
2023-02-03T02:16:01.813Z,4.40
2023-02-03T02:18:59.879Z,4.40
2023-02-03T02:21:51.592Z,3.55
2023-02-03T02:25:04.761Z,6.20
2023-02-03T02:28:15.645Z,6.05
2023-02-03T02:31:20.638Z,3.17
2023-02-03T02:34:00.895Z,3.88
2023-02-03T02:36:37.924Z,4.30
2023-02-03T02:39:15.892Z,3.88
2023-02-03T02:41:50.365Z,3.75
2023-02-03T02:44:27.217Z,4.45
2023-02-03T02:47:01.068Z,4.05
2023-02-03T02:49:38.153Z,4.20
2023-02-03T02:52:11.122Z,3.80
2023-02-03T02:54:47.349Z,3.83
2023-02-03T02:57:20.920Z,3.70
2023-02-03T02:59:51.558Z,3.70
2023-02-03T03:02:22.124Z,3.50
2023-02-03T03:04:54.655Z,3.55
2023-02-03T03:07:29.485Z,3.85
2023-02-03T03:10:03.661Z,3.70
2023-02-03T03:12:37.945Z,3.78
2023-02-03T03:15:11.383Z,3.55
2023-02-03T03:17:46.631Z,4.10
2023-02-03T03:20:24.186Z,3.75
2023-02-03T03:22:59.805Z,3.80
2023-02-03T03:25:37.906Z,3.75
2023-02-03T03:28:13.196Z,4.15
2023-02-03T03:30:43.942Z,3.22
2023-02-03T03:33:14.663Z,4.15
2023-02-03T03:35:51.966Z,4.07
2023-02-03T03:38:32.701Z,3.65
2023-02-03T03:41:07.870Z,4.22
2023-02-03T03:43:43.129Z,3.50
2023-02-03T03:46:21.682Z,3.80
2023-02-03T03:48:57.021Z,3.83
2023-02-03T03:51:33.323Z,3.85
2023-02-03T03:54:08.351Z,4.32
2023-02-03T03:56:44.341Z,3.22
2023-02-03T03:59:19.776Z,3.40
2023-02-03T04:01:51.494Z,3.83
2023-02-03T04:04:23.105Z,3.47
2023-02-03T04:06:56.805Z,4.30
2023-02-03T04:09:27.953Z,2.88
2023-02-03T04:12:04.379Z,3.70
2023-02-03T04:14:36.155Z,3.75
2023-02-03T04:17:06.727Z,3.60
2023-02-03T04:19:38.332Z,3.60
2023-02-03T04:22:10.391Z,4.10
2023-02-03T04:24:40.826Z,3.38
2023-02-03T04:27:14.327Z,3.17
2023-02-03T04:29:44.985Z,3.65
2023-02-03T04:32:16.005Z,3.30
2023-02-03T04:34:46.586Z,3.25
2023-02-03T04:37:18.738Z,4.22
2023-02-03T04:39:49.186Z,3.25
2023-02-03T04:42:20.694Z,3.38
2023-02-03T04:44:51.555Z,3.85
2023-02-03T04:47:24.773Z,3.40
2023-02-03T04:50:02.377Z,3.65
2023-02-03T04:52:34.924Z,3.50
2023-02-03T04:55:07.563Z,4.10
2023-02-03T04:57:38.042Z,2.88
2023-02-03T05:00:09.671Z,3.38
2023-02-03T05:02:40.081Z,3.40
2023-02-03T05:05:11.077Z,3.55
2023-02-03T05:07:43.121Z,3.70
2023-02-03T05:10:14.231Z,3.25
2023-02-03T05:12:44.798Z,3.17
2023-02-03T05:15:15.218Z,3.50
2023-02-03T05:17:45.632Z,3.33
2023-02-03T05:20:16.222Z,3.22
2023-02-03T05:22:48.289Z,3.40
2023-02-03T05:25:18.928Z,3.28
2023-02-03T05:27:52.125Z,3.67
2023-02-03T05:30:22.748Z,3.35
2023-02-03T05:32:53.096Z,3.28
2023-02-03T05:35:23.488Z,3.40
2023-02-03T05:37:55.577Z,3.22
2023-02-03T05:40:43.042Z,3.00
2023-02-03T05:43:13.350Z,2.90
2023-02-03T05:45:43.844Z,3.08
2023-02-03T05:48:14.574Z,2.70
2023-02-03T05:50:45.891Z,3.35
2023-02-03T05:53:17.940Z,2.95
2023-02-03T05:55:48.408Z,3.00
2023-02-03T05:58:18.790Z,3.13
2023-02-03T06:00:49.538Z,3.30
2023-02-03T06:03:20.046Z,2.92
2023-02-03T06:05:50.481Z,3.17
2023-02-03T06:08:22.395Z,3.28
2023-02-03T06:10:52.838Z,3.50
2023-02-03T06:13:23.199Z,7.35
2023-02-03T06:15:53.573Z,4.95
2023-02-03T06:18:24.010Z,3.50
2023-02-03T06:20:54.686Z,7.72
2023-02-03T06:23:26.752Z,5.40
2023-02-03T06:25:57.152Z,3.95
2023-02-03T06:28:27.560Z,4.70
2023-02-03T06:30:57.980Z,3.72
2023-02-03T06:33:29.205Z,3.53
2023-02-03T06:35:59.517Z,7.95
2023-02-03T06:38:31.490Z,4.10
2023-02-03T06:41:01.896Z,5.70
2023-02-03T06:43:32.461Z,4.53
2023-02-03T06:46:02.911Z,4.40
2023-02-03T06:48:33.472Z,4.15
2023-02-03T06:51:03.906Z,4.68
2023-02-03T06:53:35.928Z,5.07
2023-02-03T06:56:06.404Z,4.35
2023-02-03T06:58:36.782Z,3.42
2023-02-03T07:01:07.904Z,4.40
2023-02-03T07:03:38.337Z,4.18
2023-02-03T07:06:09.502Z,4.57
2023-02-03T07:08:42.432Z,5.13
2023-02-03T07:11:12.847Z,5.03
2023-02-03T07:13:43.304Z,5.03
2023-02-03T07:16:14.219Z,5.25
2023-02-03T07:18:47.321Z,4.13
2023-02-03T07:21:20.070Z,4.43
2023-02-03T07:23:53.566Z,3.92
2023-02-03T07:26:26.084Z,3.53
2023-02-03T07:28:56.769Z,4.00
2023-02-03T07:31:27.341Z,3.38
2023-02-03T07:33:58.129Z,3.80
2023-02-03T07:36:29.837Z,4.10
2023-02-03T07:39:01.830Z,3.95
2023-02-03T07:41:32.262Z,4.10
2023-02-03T07:44:02.733Z,4.03
2023-02-03T07:46:33.302Z,4.95
2023-02-03T07:49:06.591Z,9.55
2023-02-03T07:51:37.006Z,15.35
2023-02-03T07:54:09.345Z,9.38
2023-02-03T07:56:39.707Z,5.20
2023-02-03T07:59:10.313Z,69.88
2023-02-03T08:01:41.817Z,53.53
2023-02-03T08:04:17.491Z,20.23
2023-02-03T08:06:48.935Z,11.05
2023-02-03T08:09:22.269Z,5.97
2023-02-03T08:11:54.381Z,4.90
2023-02-03T08:14:26.193Z,4.70
2023-02-03T08:16:58.202Z,3.47
2023-02-03T08:19:35.320Z,5.75
2023-02-03T08:22:07.000Z,4.80
2023-02-03T08:24:41.386Z,4.25
2023-02-03T08:27:12.937Z,12.68
2023-02-03T08:29:45.396Z,37.05
2023-02-03T08:32:19.685Z,41.15
2023-02-03T08:34:52.046Z,26.67
2023-02-03T08:37:26.278Z,20.02
2023-02-03T08:40:00.247Z,6.90
2023-02-03T08:42:32.064Z,5.47
2023-02-03T08:45:05.182Z,3.65
2023-02-03T08:47:38.003Z,3.80
2023-02-03T08:50:11.203Z,5.70
2023-02-03T08:52:42.792Z,4.15
2023-02-03T08:55:16.387Z,3.20
2023-02-03T08:57:47.903Z,4.20
2023-02-03T09:00:20.483Z,3.60
2023-02-03T09:02:52.154Z,2.92
2023-02-03T09:05:23.965Z,3.13
2023-02-03T09:07:55.463Z,3.80
2023-02-03T09:10:29.049Z,9.55
2023-02-03T09:13:01.003Z,15.00
2023-02-03T09:15:32.447Z,20.40
2023-02-03T09:18:06.436Z,31.27
2023-02-03T09:20:37.752Z,25.92
2023-02-03T09:23:09.290Z,13.73
2023-02-03T09:25:46.287Z,7.80
2023-02-03T09:28:18.853Z,15.93
2023-02-03T09:30:52.545Z,38.05
2023-02-03T09:33:24.214Z,78.60
2023-02-03T09:35:58.943Z,90.72
2023-02-03T09:38:32.074Z,119.68
2023-02-03T09:41:11.891Z,47.13
2023-02-03T09:43:49.636Z,21.92
2023-02-03T09:46:27.644Z,16.40
2023-02-03T09:49:03.329Z,10.20
2023-02-03T09:51:47.493Z,8.07
2023-02-03T09:54:23.843Z,8.20
2023-02-03T09:57:01.207Z,7.70
2023-02-03T09:59:58.515Z,8.20
2023-02-03T10:02:47.107Z,5.72
2023-02-03T10:05:30.124Z,6.50
2023-02-03T10:08:10.457Z,7.20
2023-02-03T10:10:49.893Z,9.50
2023-02-03T10:13:32.970Z,6.13
2023-02-03T10:16:14.726Z,5.15
2023-02-03T10:18:51.737Z,28.98
2023-02-03T10:21:34.597Z,6.28
2023-02-03T10:24:16.998Z,6.25
2023-02-03T10:26:48.322Z,4.32
2023-02-03T10:29:27.193Z,6.10
2023-02-03T10:32:00.607Z,5.20
2023-02-03T10:34:32.145Z,11.07
2023-02-03T10:37:12.588Z,8.93
2023-02-03T10:39:48.567Z,8.88
2023-02-03T10:42:21.156Z,8.65
2023-02-03T10:44:59.993Z,7.10
2023-02-03T10:47:37.160Z,9.48
2023-02-03T10:50:11.092Z,17.40
2023-02-03T10:52:42.513Z,17.90
2023-02-03T10:55:34.812Z,8.40
2023-02-03T10:58:18.448Z,15.60
2023-02-03T11:00:59.345Z,26.38
2023-02-03T11:03:32.557Z,8.95
2023-02-03T11:06:14.979Z,30.50
2023-02-03T11:08:48.157Z,39.47
2023-02-03T11:11:26.040Z,51.97
2023-02-03T11:14:00.313Z,33.78
2023-02-03T11:16:35.604Z,33.72
2023-02-03T11:19:10.669Z,16.70
2023-02-03T11:21:47.515Z,8.15
2023-02-03T11:24:24.260Z,8.02
2023-02-03T11:26:59.597Z,6.88
2023-02-03T11:29:32.916Z,5.70
2023-02-03T11:32:10.132Z,6.82
2023-02-03T11:34:44.131Z,4.97
2023-02-03T11:37:31.314Z,5.30
2023-02-03T11:40:26.955Z,5.35
2023-02-03T11:43:17.250Z,4.38
2023-02-03T11:45:51.661Z,4.63
2023-02-03T11:48:33.017Z,5.70
2023-02-03T11:51:16.652Z,7.10
2023-02-03T11:54:04.477Z,8.00
2023-02-03T11:56:49.844Z,6.93
2023-02-03T11:59:36.777Z,6.53
2023-02-03T12:02:42.983Z,5.40
2023-02-03T12:05:39.016Z,5.70
2023-02-03T12:08:24.764Z,4.35
2023-02-03T12:11:07.879Z,3.97
2023-02-03T12:14:04.362Z,6.78
2023-02-03T12:17:06.635Z,8.80
2023-02-03T12:19:51.489Z,5.00
2023-02-03T12:22:34.073Z,5.05
2023-02-03T12:25:21.002Z,4.22
2023-02-03T12:28:01.893Z,4.18
2023-02-03T12:30:38.489Z,5.00
2023-02-03T12:33:19.078Z,4.65
2023-02-03T12:35:55.324Z,4.90
2023-02-03T12:38:35.181Z,4.30
2023-02-03T12:43:50.329Z,4.50
2023-02-03T12:46:25.698Z,4.22
2023-02-03T12:49:02.624Z,3.83
2023-02-03T12:51:41.415Z,3.80
2023-02-03T12:54:26.062Z,4.13
2023-02-03T12:57:04.192Z,5.45
2023-02-03T12:59:36.369Z,4.00
2023-02-03T13:02:18.990Z,5.40
2023-02-03T13:04:57.204Z,4.18
2023-02-03T13:07:34.114Z,5.25
2023-02-03T13:10:09.449Z,5.22
2023-02-03T13:12:45.284Z,9.48
2023-02-03T13:15:31.015Z,9.90
2023-02-03T13:18:08.402Z,8.25
2023-02-03T13:20:40.057Z,8.20
2023-02-03T13:23:15.671Z,7.25
2023-02-03T13:26:01.477Z,7.35
2023-02-03T13:28:50.818Z,5.85
2023-02-03T13:31:35.265Z,5.80
2023-02-03T13:34:27.781Z,4.65
2023-02-03T13:37:32.339Z,4.63
2023-02-03T13:40:28.586Z,4.53
2023-02-03T13:43:04.415Z,5.03
2023-02-03T13:45:40.644Z,8.02
2023-02-03T13:48:17.316Z,5.95
2023-02-03T13:50:49.914Z,4.32
2023-02-03T13:53:24.683Z,4.00
2023-02-03T13:56:00.777Z,4.60
2023-02-03T13:58:35.871Z,4.43
2023-02-03T14:01:23.269Z,4.75
2023-02-03T14:03:54.655Z,4.25
2023-02-03T14:07:04.027Z,3.97
2023-02-03T14:09:40.802Z,7.20
2023-02-03T14:12:41.993Z,5.53
2023-02-03T14:15:34.307Z,4.30
2023-02-03T14:18:35.559Z,4.07
2023-02-03T14:21:25.717Z,4.22
2023-02-03T14:24:02.748Z,4.45
2023-02-03T14:26:42.391Z,4.22
2023-02-03T14:29:27.633Z,4.00
2023-02-03T14:32:03.371Z,5.43
2023-02-03T14:34:40.922Z,4.80
2023-02-03T14:37:21.569Z,5.75
2023-02-03T14:40:20.386Z,5.50
2023-02-03T14:43:14.957Z,8.43
2023-02-03T14:46:13.519Z,16.20
2023-02-03T14:49:22.609Z,16.35
2023-02-03T14:52:16.543Z,17.73
2023-02-03T14:55:03.738Z,30.52
2023-02-03T14:57:44.796Z,18.70
2023-02-03T15:00:34.737Z,17.08
2023-02-03T15:03:26.451Z,8.40
2023-02-03T15:06:02.403Z,13.55
2023-02-03T15:08:45.405Z,10.63
2023-02-03T15:11:34.640Z,17.42
2023-02-03T15:14:27.289Z,39.83
2023-02-03T15:17:04.012Z,17.55
2023-02-03T15:19:39.245Z,14.32
2023-02-03T15:22:25.191Z,6.80
2023-02-03T15:24:59.033Z,4.75
2023-02-03T15:27:31.958Z,6.85
2023-02-03T15:30:17.276Z,43.85
2023-02-03T15:32:58.284Z,35.72
2023-02-03T15:35:33.908Z,20.30
2023-02-03T15:38:10.051Z,15.32
2023-02-03T15:40:47.335Z,9.52
2023-02-03T15:43:22.023Z,11.65
2023-02-03T15:46:03.205Z,20.75
2023-02-03T15:48:40.842Z,31.95
2023-02-03T15:51:17.615Z,59.00
2023-02-03T15:53:56.641Z,45.22
2023-02-03T15:56:38.937Z,20.60
2023-02-03T15:59:22.207Z,10.73
2023-02-03T16:01:54.093Z,10.43
2023-02-03T16:04:28.835Z,12.80
2023-02-03T16:07:01.166Z,48.17
2023-02-03T16:09:35.715Z,37.28
2023-02-03T16:12:20.917Z,28.73
2023-02-03T16:14:52.363Z,17.20
2023-02-03T16:17:43.942Z,10.18
2023-02-03T16:20:30.789Z,5.53
2023-02-03T16:23:19.571Z,13.50
2023-02-03T16:26:52.157Z,5.93
2023-02-03T16:32:51.622Z,62.50
2023-02-03T16:35:42.799Z,56.72
2023-02-03T16:38:39.447Z,54.60
2023-02-03T16:45:05.906Z,14.52
2023-02-03T16:47:57.955Z,7.30
2023-02-03T16:50:47.592Z,5.30
2023-02-03T16:53:26.766Z,5.85
2023-02-03T16:56:00.682Z,6.47
2023-02-03T16:58:32.814Z,5.28
2023-02-03T17:01:17.962Z,5.50
2023-02-03T17:03:49.783Z,4.72
2023-02-03T17:06:23.984Z,5.43
2023-02-03T17:09:47.895Z,4.55
2023-02-03T17:12:25.961Z,4.55
2023-02-03T17:14:58.632Z,5.00
2023-02-03T17:17:33.032Z,5.10
2023-02-03T17:20:11.789Z,5.15
2023-02-03T17:22:47.332Z,4.28
2023-02-03T17:25:21.648Z,5.25
2023-02-03T17:27:54.116Z,4.88
2023-02-03T17:30:36.423Z,6.78
2023-02-03T17:33:37.575Z,5.35
2023-02-03T17:36:14.628Z,4.97
2023-02-03T17:53:29.242Z,10.48
2023-02-03T18:00:25.460Z,4.18
2023-02-03T18:02:58.843Z,4.00
2023-02-03T18:05:34.012Z,4.18
2023-02-03T18:08:16.666Z,3.65
2023-02-03T18:10:51.260Z,3.63
2023-02-03T18:13:24.769Z,4.32
2023-02-03T18:16:04.380Z,5.03
2023-02-03T18:18:36.462Z,4.65
2023-02-03T18:21:30.792Z,3.97
2023-02-03T18:24:38.107Z,4.25
2023-02-03T18:38:12.333Z,3.65
2023-02-03T18:40:50.103Z,4.22
2023-02-03T18:43:53.865Z,4.28
2023-02-03T18:46:27.224Z,4.57
2023-02-03T18:49:19.674Z,4.25
2023-02-03T18:52:42.357Z,3.95
2023-02-03T18:55:16.217Z,4.05
2023-02-03T19:01:53.243Z,4.07
2023-02-03T19:04:24.736Z,4.88
2023-02-03T19:06:55.257Z,4.00
2023-02-03T19:09:26.347Z,3.83
2023-02-03T19:11:59.716Z,5.75
2023-02-03T19:14:30.265Z,12.23
2023-02-03T19:17:00.942Z,6.75
2023-02-03T19:19:31.679Z,5.38
2023-02-03T19:22:02.178Z,4.65
2023-02-03T19:24:32.703Z,4.53
2023-02-03T19:27:04.844Z,5.90
2023-02-03T19:29:36.317Z,4.40
2023-02-03T19:32:07.804Z,5.00
2023-02-03T19:34:38.517Z,5.30
2023-02-03T19:37:10.295Z,4.97
2023-02-03T19:39:41.737Z,4.70
2023-02-03T19:42:14.179Z,4.38
2023-02-03T19:44:44.859Z,4.57
2023-02-03T19:47:15.331Z,4.15
2023-02-03T19:49:45.858Z,4.85
2023-02-03T19:52:17.330Z,4.03
2023-02-03T19:54:48.599Z,5.25
2023-02-03T19:57:23.588Z,4.10
2023-02-03T19:59:54.922Z,4.88
2023-02-03T20:02:26.797Z,4.80
2023-02-03T20:04:59.057Z,4.72
2023-02-03T20:07:33.405Z,4.50
2023-02-03T20:10:08.254Z,4.10
2023-02-03T20:12:43.241Z,4.97
2023-02-03T20:15:13.795Z,4.35
2023-02-03T20:17:44.788Z,5.22
2023-02-03T20:20:15.429Z,4.07
2023-02-03T20:22:45.931Z,4.20
2023-02-03T20:25:16.460Z,4.47
2023-02-03T20:27:48.844Z,4.50
2023-02-03T20:30:19.479Z,4.97
2023-02-03T20:32:50.832Z,5.30
2023-02-03T20:35:26.135Z,4.70
2023-02-03T20:37:57.213Z,4.53
2023-02-03T20:40:30.325Z,4.00
2023-02-03T20:43:08.705Z,5.07
2023-02-03T20:45:39.227Z,4.38
2023-02-03T20:48:13.613Z,4.63
2023-02-03T20:50:48.161Z,4.18
2023-02-03T20:53:20.777Z,3.55
2023-02-03T20:55:52.349Z,4.72
2023-02-03T20:58:27.761Z,4.85
2023-02-03T21:00:59.083Z,4.07
2023-02-03T21:03:46.281Z,4.95
2023-02-03T21:06:17.880Z,5.75
2023-02-03T21:08:49.265Z,6.40
2023-02-03T21:11:21.567Z,5.35
2023-02-03T21:13:53.687Z,5.85
2023-02-03T21:16:28.348Z,5.10
2023-02-03T21:19:01.179Z,5.45
2023-02-03T21:21:38.947Z,5.28
2023-02-03T21:24:29.534Z,4.53
2023-02-03T21:27:01.086Z,4.60
2023-02-03T21:29:36.693Z,4.55
2023-02-03T21:32:14.134Z,5.50
2023-02-03T21:34:45.941Z,4.18
2023-02-03T21:37:42.427Z,4.45
2023-02-03T21:40:23.791Z,4.72
2023-02-03T21:42:54.780Z,4.68
2023-02-03T21:45:36.470Z,4.97
2023-02-03T21:48:27.390Z,4.90
2023-02-03T21:50:59.084Z,5.50
2023-02-03T21:53:34.420Z,5.43
2023-02-03T21:56:20.176Z,5.25
2023-02-03T21:58:52.743Z,5.43
2023-02-03T22:01:26.965Z,4.95
2023-02-03T22:04:00.653Z,5.22
2023-02-03T22:06:38.900Z,5.40
2023-02-03T22:09:09.437Z,4.82
2023-02-03T22:11:39.851Z,5.57
2023-02-03T22:14:10.398Z,4.57
2023-02-03T22:16:42.581Z,5.00
2023-02-03T22:19:13.348Z,4.57
2023-02-03T22:21:43.814Z,4.13
2023-02-03T22:24:14.472Z,4.90
2023-02-03T22:26:44.854Z,5.72
2023-02-03T22:29:15.310Z,5.68
2023-02-03T22:31:47.520Z,9.30
2023-02-03T22:34:19.906Z,5.75
2023-02-03T22:36:50.370Z,4.95
2023-02-03T22:39:20.855Z,6.15
2023-02-03T22:41:51.334Z,5.32
2023-02-03T22:44:21.808Z,5.97
2023-02-03T22:46:53.869Z,5.63
2023-02-03T22:49:24.296Z,5.15
2023-02-03T22:51:54.773Z,5.05
2023-02-03T22:54:25.163Z,5.18
2023-02-03T22:56:55.552Z,5.10
2023-02-03T22:59:26.067Z,4.57
2023-02-03T23:01:58.133Z,4.57
2023-02-03T23:04:28.604Z,4.80
2023-02-03T23:06:59.072Z,4.93
2023-02-03T23:09:29.479Z,5.47
2023-02-03T23:12:00.122Z,5.05
2023-02-03T23:14:30.628Z,5.38
2023-02-03T23:17:02.697Z,10.20
2023-02-03T23:19:33.112Z,26.10
2023-02-03T23:22:03.543Z,26.88
2023-02-03T23:24:33.968Z,21.98
2023-02-03T23:27:04.960Z,13.43
2023-02-03T23:29:38.313Z,11.40
2023-02-03T23:32:11.640Z,8.05
2023-02-03T23:34:58.882Z,9.50
2023-02-03T23:37:29.365Z,10.88
2023-02-03T23:39:59.850Z,10.65
2023-02-03T23:42:30.293Z,8.30
2023-02-03T23:45:00.726Z,11.23
2023-02-03T23:47:32.819Z,12.40
2023-02-03T23:50:03.259Z,21.10
2023-02-03T23:52:36.432Z,45.15
2023-02-03T23:55:08.419Z,23.38
2023-02-03T23:57:38.918Z,22.95
